createdAt,value
2023-09-30T00:01:14.656Z,100820.31
2023-09-30T00:03:41.580Z,100815.75
2023-09-30T00:06:08.183Z,100815.25
2023-09-30T00:08:34.796Z,100814.03
2023-09-30T00:11:01.373Z,100807.88
2023-09-30T00:13:28.204Z,100813.03
2023-09-30T00:15:55.021Z,100814.22
2023-09-30T00:18:21.808Z,100811.53
2023-09-30T00:20:48.566Z,100809.19
2023-09-30T00:23:15.148Z,100811.91
2023-09-30T00:25:41.844Z,100807.94
2023-09-30T00:28:08.524Z,100810.16
2023-09-30T00:30:35.161Z,100817.06
2023-09-30T00:33:01.827Z,100803.34
2023-09-30T00:35:28.449Z,100809.50
2023-09-30T00:37:55.257Z,100805.66
2023-09-30T00:40:22.468Z,100805.28
2023-09-30T00:42:49.060Z,100798.84
2023-09-30T00:47:41.720Z,100802.78
2023-09-30T00:50:09.629Z,100800.81
2023-09-30T00:52:37.307Z,100803.44
2023-09-30T00:55:04.452Z,100803.31
2023-09-30T00:57:32.060Z,100800.34
2023-09-30T00:59:59.620Z,100803.03
2023-09-30T01:02:26.688Z,100800.47
2023-09-30T01:04:54.729Z,100809.03
2023-09-30T01:07:21.252Z,100808.84
2023-09-30T01:09:49.523Z,100815.09
2023-09-30T01:12:16.057Z,100805.38
2023-09-30T01:14:43.192Z,100809.28
2023-09-30T01:17:10.094Z,100815.03
2023-09-30T01:19:36.869Z,100804.34
2023-09-30T01:22:03.496Z,100811.47
2023-09-30T01:24:30.898Z,100815.09
2023-09-30T01:26:58.231Z,100812.22
2023-09-30T01:29:24.753Z,100820.56
2023-09-30T01:31:51.517Z,100824.16
2023-09-30T01:34:18.267Z,100823.59
2023-09-30T01:36:45.256Z,100823.13
2023-09-30T01:39:12.595Z,100832.94
2023-09-30T01:41:40.912Z,100836.47
2023-09-30T01:44:08.319Z,100825.75
2023-09-30T01:46:35.033Z,100826.16
2023-09-30T01:49:03.229Z,100827.09
2023-09-30T01:51:30.151Z,100835.72
2023-09-30T01:53:57.057Z,100840.06
2023-09-30T01:56:23.863Z,100821.97
2023-09-30T01:58:50.599Z,100830.34
2023-09-30T02:01:17.281Z,100825.97
2023-09-30T02:03:44.017Z,100823.75
2023-09-30T02:06:10.751Z,100830.22
2023-09-30T02:08:37.354Z,100823.13
2023-09-30T02:11:04.422Z,100824.31
2023-09-30T02:13:34.045Z,100826.53
2023-09-30T02:16:00.762Z,100817.38
2023-09-30T02:18:27.385Z,100836.41
2023-09-30T02:20:53.922Z,100821.38
2023-09-30T02:23:20.573Z,100825.19
2023-09-30T02:25:47.069Z,100833.28
2023-09-30T02:28:13.699Z,100830.59
2023-09-30T02:30:40.271Z,100832.00
2023-09-30T02:33:06.938Z,100835.31
2023-09-30T02:35:33.602Z,100846.22
2023-09-30T02:38:04.766Z,100836.66
2023-09-30T02:40:31.483Z,100836.19
2023-09-30T02:42:57.998Z,100829.22
2023-09-30T02:45:25.006Z,100831.69
2023-09-30T02:47:51.657Z,100826.00
2023-09-30T02:50:18.245Z,100810.06
2023-09-30T02:52:45.523Z,100827.66
2023-09-30T02:55:13.518Z,100821.09
2023-09-30T02:57:40.515Z,100817.09
2023-09-30T03:00:10.438Z,100813.53
2023-09-30T03:02:37.536Z,100818.94
2023-09-30T03:05:07.340Z,100826.28
2023-09-30T03:07:33.921Z,100832.84
2023-09-30T03:10:02.907Z,100828.31
2023-09-30T03:12:29.489Z,100817.09
2023-09-30T03:14:55.997Z,100831.34
2023-09-30T03:17:22.549Z,100819.78
2023-09-30T03:19:49.108Z,100822.91
2023-09-30T03:22:15.667Z,100820.50
2023-09-30T03:24:42.292Z,100824.38
2023-09-30T03:27:09.418Z,100823.28
2023-09-30T03:29:39.050Z,100818.00
2023-09-30T03:32:05.951Z,100826.59
2023-09-30T03:34:32.556Z,100825.19
2023-09-30T03:36:59.103Z,100819.69
2023-09-30T03:39:26.053Z,100820.00
2023-09-30T03:41:52.683Z,100814.94
2023-09-30T03:44:19.266Z,100820.44
2023-09-30T03:46:46.948Z,100824.97
2023-09-30T03:49:13.459Z,100821.66
2023-09-30T03:51:43.532Z,100819.78
2023-09-30T03:54:10.187Z,100822.50
2023-09-30T03:56:36.787Z,100826.19
2023-09-30T03:59:05.052Z,100821.75
2023-09-30T04:01:31.711Z,100825.84
2023-09-30T04:03:58.588Z,100829.53
2023-09-30T04:06:25.486Z,100826.88
2023-09-30T04:08:52.092Z,100820.50
2023-09-30T04:11:18.656Z,100829.06
2023-09-30T04:13:45.933Z,100823.66
2023-09-30T04:16:12.787Z,100823.78
2023-09-30T04:18:39.475Z,100827.47
2023-09-30T04:21:06.096Z,100829.75
2023-09-30T04:23:32.733Z,100831.34
2023-09-30T04:25:59.416Z,100836.53
2023-09-30T04:28:26.109Z,100831.66
2023-09-30T04:30:52.800Z,100829.63
2023-09-30T04:33:19.786Z,100836.88
2023-09-30T04:38:11.729Z,100839.69
2023-09-30T04:40:38.437Z,100846.03
2023-09-30T04:43:05.114Z,100839.88
2023-09-30T04:45:31.915Z,100848.19
2023-09-30T04:47:58.480Z,100854.19
2023-09-30T04:50:25.236Z,100853.31
2023-09-30T04:52:52.711Z,100847.91
2023-09-30T04:55:19.436Z,100840.03
2023-09-30T04:57:47.469Z,100851.03
2023-09-30T05:00:20.579Z,100848.97
2023-09-30T05:02:48.325Z,100862.34
2023-09-30T05:05:15.265Z,100858.81
2023-09-30T05:07:42.161Z,100853.19
2023-09-30T05:10:09.449Z,100856.63
2023-09-30T05:12:35.968Z,100858.88
2023-09-30T05:15:02.579Z,100858.53
2023-09-30T05:17:29.856Z,100860.16
2023-09-30T05:20:00.203Z,100862.38
2023-09-30T05:22:26.745Z,100865.59
2023-09-30T05:24:53.524Z,100850.78
2023-09-30T05:27:20.739Z,100857.44
2023-09-30T05:29:47.241Z,100858.47
2023-09-30T05:32:13.752Z,100861.19
2023-09-30T05:34:40.420Z,100866.03
2023-09-30T05:37:07.298Z,100860.78
2023-09-30T05:39:36.313Z,100864.75
2023-09-30T05:42:03.395Z,100873.69
2023-09-30T05:44:30.305Z,100880.47
2023-09-30T05:46:57.120Z,100875.56
2023-09-30T05:49:24.898Z,100868.53
2023-09-30T05:51:51.523Z,100882.56
2023-09-30T05:54:20.316Z,100879.09
2023-09-30T05:56:47.077Z,100883.69
2023-09-30T05:59:14.710Z,100891.31
2023-09-30T06:01:41.406Z,100883.81
2023-09-30T06:04:08.065Z,100884.47
2023-09-30T06:06:34.919Z,100889.72
2023-09-30T06:09:01.803Z,100895.25
2023-09-30T06:11:29.181Z,100892.56
2023-09-30T06:13:56.316Z,100882.94
2023-09-30T06:16:23.232Z,100897.09
2023-09-30T06:18:49.906Z,100897.84
2023-09-30T06:21:16.570Z,100894.50
2023-09-30T06:23:43.089Z,100900.66
2023-09-30T06:26:13.433Z,100891.22
2023-09-30T06:28:39.962Z,100894.28
2023-09-30T06:31:07.278Z,100895.50
2023-09-30T06:33:33.993Z,100901.69
2023-09-30T06:36:00.597Z,100902.28
2023-09-30T06:38:27.230Z,100900.03
2023-09-30T06:40:53.817Z,100899.63
2023-09-30T06:43:21.041Z,100895.91
2023-09-30T06:45:47.884Z,100898.31
2023-09-30T06:48:15.752Z,100907.53
2023-09-30T06:50:50.312Z,100900.25
2023-09-30T06:53:17.758Z,100890.22
2023-09-30T06:55:44.592Z,100900.53
2023-09-30T06:58:11.687Z,100902.34
2023-09-30T07:00:39.527Z,100894.69
2023-09-30T07:03:06.857Z,100900.91
2023-09-30T07:05:35.564Z,100898.06
2023-09-30T07:08:02.273Z,100900.88
2023-09-30T07:10:29.588Z,100895.00
2023-09-30T07:12:56.777Z,100895.22
2023-09-30T07:15:23.542Z,100895.13
2023-09-30T07:17:50.250Z,100900.44
2023-09-30T07:20:17.900Z,100903.59
2023-09-30T07:22:55.737Z,100896.47
2023-09-30T07:25:30.451Z,100893.66
2023-09-30T07:27:58.844Z,100890.38
2023-09-30T07:30:26.650Z,100901.13
2023-09-30T07:32:53.489Z,100895.81
2023-09-30T07:35:20.381Z,100896.34
2023-09-30T07:37:46.990Z,100894.59
2023-09-30T07:40:14.199Z,100892.59
2023-09-30T07:42:42.178Z,100892.56
2023-09-30T07:45:09.888Z,100883.28
2023-09-30T07:47:37.881Z,100883.16
2023-09-30T07:50:04.938Z,100878.38
2023-09-30T07:52:34.183Z,100883.13
2023-09-30T07:55:00.824Z,100886.25
2023-09-30T07:57:27.444Z,100888.94
2023-09-30T07:59:54.048Z,100886.09
2023-09-30T08:02:20.592Z,100882.81
2023-09-30T08:04:48.638Z,100887.69
2023-09-30T08:07:15.323Z,100875.50
2023-09-30T08:09:41.914Z,100878.31
2023-09-30T08:12:08.994Z,100878.81
2023-09-30T08:14:35.553Z,100870.69
2023-09-30T08:17:03.215Z,100872.97
2023-09-30T08:19:29.761Z,100867.72
2023-09-30T08:21:58.275Z,100860.53
2023-09-30T08:24:24.945Z,100871.34
2023-09-30T08:26:51.603Z,100862.44
2023-09-30T08:29:18.303Z,100863.47
2023-09-30T08:34:15.038Z,100857.41
2023-09-30T08:36:42.141Z,100854.94
2023-09-30T08:39:08.798Z,100849.13
2023-09-30T08:41:35.471Z,100851.47
2023-09-30T08:44:03.094Z,100854.41
2023-09-30T08:46:34.577Z,100846.44
2023-09-30T08:49:05.876Z,100851.09
2023-09-30T08:51:33.266Z,100838.53
2023-09-30T08:54:01.464Z,100838.47
2023-09-30T08:56:29.635Z,100839.34
2023-09-30T08:58:59.497Z,100833.28
2023-09-30T09:01:28.897Z,100828.72
2023-09-30T09:03:56.221Z,100838.53
2023-09-30T09:06:27.425Z,100822.91
2023-09-30T09:08:54.646Z,100819.72
2023-09-30T09:11:21.498Z,100818.19
2023-09-30T09:13:51.838Z,100815.38
2023-09-30T09:16:19.462Z,100814.13
2023-09-30T09:18:46.533Z,100819.63
2023-09-30T09:21:15.513Z,100821.91
2023-09-30T09:23:43.842Z,100810.75
2023-09-30T09:26:12.327Z,100811.88
2023-09-30T09:28:39.489Z,100812.09
2023-09-30T09:31:21.479Z,100806.03
2023-09-30T09:33:49.277Z,100810.47
2023-09-30T09:36:16.545Z,100805.88
2023-09-30T09:38:47.542Z,100800.81
2023-09-30T09:41:14.185Z,100800.16
2023-09-30T09:43:43.458Z,100795.81
2023-09-30T09:46:10.772Z,100792.44
2023-09-30T09:48:37.890Z,100789.34
2023-09-30T09:51:10.032Z,100790.53
2023-09-30T09:53:40.095Z,100789.50
2023-09-30T09:56:09.610Z,100786.94
2023-09-30T09:58:36.683Z,100779.13
2023-09-30T10:01:03.507Z,100779.91
2023-09-30T10:03:30.799Z,100787.06
2023-09-30T10:05:57.823Z,100774.56
2023-09-30T10:08:32.070Z,100767.09
2023-09-30T10:10:58.905Z,100769.81
2023-09-30T10:13:51.901Z,100771.66
2023-09-30T10:16:37.535Z,100755.06
2023-09-30T10:19:16.129Z,100752.63
2023-09-30T10:22:19.953Z,100749.22
2023-09-30T10:24:48.028Z,100751.34
2023-09-30T10:27:27.704Z,100750.75
2023-09-30T10:30:07.368Z,100746.28
2023-09-30T10:32:53.335Z,100742.91
2023-09-30T10:35:21.644Z,100742.69
2023-09-30T10:37:49.598Z,100732.44
2023-09-30T10:40:31.333Z,100728.22
2023-09-30T10:42:58.230Z,100717.84
2023-09-30T10:45:46.254Z,100715.69
2023-09-30T10:48:32.191Z,100718.44
2023-09-30T10:51:02.865Z,100709.28
2023-09-30T10:53:29.790Z,100704.38
2023-09-30T10:55:58.333Z,100693.13
2023-09-30T10:58:44.869Z,100697.56
2023-09-30T11:01:17.410Z,100695.59
2023-09-30T11:03:45.501Z,100695.84
2023-09-30T11:06:13.897Z,100691.16
2023-09-30T11:08:46.912Z,100685.66
2023-09-30T11:11:14.136Z,100678.00
2023-09-30T11:13:40.905Z,100678.00
2023-09-30T11:16:07.593Z,100670.53
2023-09-30T11:18:34.220Z,100661.75
2023-09-30T11:21:09.553Z,100657.28
2023-09-30T11:23:36.825Z,100654.78
2023-09-30T11:26:03.751Z,100650.88
2023-09-30T11:28:46.523Z,100646.75
2023-09-30T11:31:13.985Z,100642.13
2023-09-30T11:33:54.768Z,100633.38
2023-09-30T11:36:22.160Z,100630.47
2023-09-30T11:38:50.673Z,100622.91
2023-09-30T11:41:18.429Z,100622.91
2023-09-30T11:44:14.056Z,100618.66
2023-09-30T11:46:51.086Z,100620.16
2023-09-30T11:49:38.609Z,100614.88
2023-09-30T11:52:12.392Z,100612.31
2023-09-30T11:54:41.059Z,100606.09
2023-09-30T11:57:08.599Z,100595.03
2023-09-30T11:59:35.261Z,100592.44
2023-09-30T12:04:31.540Z,100600.59
2023-09-30T12:06:58.391Z,100589.91
2023-09-30T12:09:25.273Z,100589.34
2023-09-30T12:11:52.855Z,100587.66
2023-09-30T12:14:19.524Z,100590.75
2023-09-30T12:16:46.249Z,100579.19
2023-09-30T12:19:15.252Z,100570.88
2023-09-30T12:21:42.675Z,100571.91
2023-09-30T12:24:09.566Z,100569.69
2023-09-30T12:26:40.506Z,100568.47
2023-09-30T12:29:07.092Z,100564.16
2023-09-30T12:31:46.154Z,100562.00
2023-09-30T12:34:19.107Z,100561.47
2023-09-30T12:36:45.873Z,100558.63
2023-09-30T12:39:12.681Z,100557.00
2023-09-30T12:41:45.655Z,100545.78
2023-09-30T12:44:12.992Z,100556.00
2023-09-30T12:46:39.541Z,100559.25
2023-09-30T12:49:06.928Z,100551.44
2023-09-30T12:51:37.354Z,100544.44
2023-09-30T12:54:04.548Z,100547.16
2023-09-30T12:56:31.290Z,100542.22
2023-09-30T12:58:58.986Z,100536.34
2023-09-30T13:01:26.630Z,100534.25
2023-09-30T13:03:53.896Z,100536.34
2023-09-30T13:06:21.059Z,100536.06
2023-09-30T13:11:15.623Z,100544.22
2023-09-30T13:13:42.331Z,100540.13
2023-09-30T13:16:11.873Z,100533.94
2023-09-30T13:18:38.594Z,100537.75
2023-09-30T13:21:06.508Z,100541.53
2023-09-30T13:23:33.656Z,100532.19
2023-09-30T13:26:00.317Z,100534.56
2023-09-30T13:28:28.148Z,100525.34
2023-09-30T13:30:54.943Z,100529.50
2023-09-30T13:33:22.625Z,100529.72
2023-09-30T13:35:49.341Z,100527.19
2023-09-30T13:38:16.220Z,100532.72
2023-09-30T13:40:43.213Z,100523.06
2023-09-30T13:43:10.012Z,100525.97
2023-09-30T13:45:36.668Z,100523.03
2023-09-30T13:48:03.893Z,100517.38
2023-09-30T13:50:30.520Z,100526.88
2023-09-30T13:52:57.116Z,100518.38
2023-09-30T13:55:24.650Z,100526.09
2023-09-30T13:57:51.452Z,100526.78
2023-09-30T14:00:19.094Z,100525.31
2023-09-30T14:02:45.851Z,100525.97
2023-09-30T14:05:12.655Z,100514.31
2023-09-30T14:07:39.415Z,100515.19
2023-09-30T14:10:06.980Z,100522.88
2023-09-30T14:12:33.908Z,100522.69
2023-09-30T14:15:01.898Z,100520.78
2023-09-30T14:17:30.267Z,100512.72
2023-09-30T14:19:56.994Z,100517.44
2023-09-30T14:22:23.660Z,100518.97
2023-09-30T14:24:50.237Z,100519.19
2023-09-30T14:27:17.417Z,100520.69
2023-09-30T14:29:44.215Z,100519.00
2023-09-30T14:32:11.021Z,100532.41
2023-09-30T14:34:37.813Z,100526.03
2023-09-30T14:37:04.572Z,100534.75
2023-09-30T14:39:31.240Z,100525.00
2023-09-30T14:41:57.861Z,100527.97
2023-09-30T14:44:24.439Z,100525.41
2023-09-30T14:46:51.183Z,100524.16
2023-09-30T14:49:17.818Z,100534.19
2023-09-30T14:51:44.560Z,100533.97
2023-09-30T14:54:11.170Z,100539.72
2023-09-30T14:56:37.750Z,100532.91
2023-09-30T15:01:29.790Z,100541.00
2023-09-30T15:03:56.744Z,100537.19
2023-09-30T15:06:24.485Z,100535.91
2023-09-30T15:08:52.453Z,100542.72
2023-09-30T15:11:19.173Z,100544.84
2023-09-30T15:13:46.778Z,100544.88
2023-09-30T15:16:17.650Z,100539.34
2023-09-30T15:18:44.346Z,100549.53
2023-09-30T15:21:10.937Z,100545.75
2023-09-30T15:23:37.719Z,100544.88
2023-09-30T15:26:04.376Z,100548.88
2023-09-30T15:28:31.135Z,100551.22
2023-09-30T15:30:57.918Z,100557.16
2023-09-30T15:33:24.692Z,100551.84
2023-09-30T15:35:51.546Z,100552.69
2023-09-30T15:38:18.854Z,100557.13
2023-09-30T15:40:55.876Z,100559.44
2023-09-30T15:43:22.629Z,100558.59
2023-09-30T15:45:49.637Z,100551.94
2023-09-30T15:48:16.328Z,100556.56
2023-09-30T15:50:43.596Z,100554.00
2023-09-30T15:53:11.255Z,100552.06
2023-09-30T15:55:37.989Z,100557.53
2023-09-30T15:58:05.733Z,100561.50
2023-09-30T16:00:32.887Z,100562.31
2023-09-30T16:02:59.684Z,100562.00
2023-09-30T16:05:26.453Z,100555.94
2023-09-30T16:07:53.391Z,100567.13
2023-09-30T16:10:20.370Z,100559.47
2023-09-30T16:12:47.179Z,100563.22
2023-09-30T16:15:13.899Z,100564.66
2023-09-30T16:17:40.594Z,100566.50
2023-09-30T16:20:10.513Z,100568.78
2023-09-30T16:22:37.132Z,100575.75
2023-09-30T16:25:04.006Z,100570.19
2023-09-30T16:27:33.070Z,100575.78
2023-09-30T16:29:59.990Z,100580.13
2023-09-30T16:32:28.194Z,100576.25
2023-09-30T16:34:55.845Z,100576.78
2023-09-30T16:37:22.445Z,100579.13
2023-09-30T16:39:49.290Z,100581.94
2023-09-30T16:42:15.806Z,100575.94
2023-09-30T16:44:42.321Z,100576.63
2023-09-30T16:47:09.688Z,100582.34
2023-09-30T16:49:37.820Z,100584.41
2023-09-30T16:54:54.771Z,100591.25
2023-09-30T16:57:21.348Z,100596.97
2023-09-30T16:59:48.097Z,100599.41
2023-09-30T17:02:14.752Z,100596.38
2023-09-30T17:04:45.994Z,100597.13
2023-09-30T17:07:13.030Z,100597.31
2023-09-30T17:09:39.762Z,100598.25
2023-09-30T17:12:07.161Z,100601.53
2023-09-30T17:14:35.118Z,100609.84
2023-09-30T17:17:02.448Z,100608.03
2023-09-30T17:19:29.650Z,100606.19
2023-09-30T17:21:56.564Z,100605.94
2023-09-30T17:24:23.432Z,100607.91
2023-09-30T17:26:51.327Z,100606.63
2023-09-30T17:29:17.940Z,100615.72
2023-09-30T17:31:44.976Z,100614.38
2023-09-30T17:34:11.860Z,100614.59
2023-09-30T17:36:38.970Z,100621.47
2023-09-30T17:39:05.822Z,100616.22
2023-09-30T17:41:36.482Z,100624.78
2023-09-30T17:44:05.519Z,100621.72
2023-09-30T17:46:32.316Z,100626.69
2023-09-30T17:48:59.532Z,100622.75
2023-09-30T17:51:27.464Z,100625.47
2023-09-30T17:53:55.067Z,100632.34
2023-09-30T17:56:22.512Z,100634.22
2023-09-30T17:58:50.107Z,100629.19
2023-09-30T18:01:17.812Z,100624.41
2023-09-30T18:03:44.628Z,100629.53
2023-09-30T18:06:11.325Z,100628.81
2023-09-30T18:08:39.272Z,100628.13
2023-09-30T18:11:07.700Z,100635.69
2023-09-30T18:13:34.246Z,100631.91
2023-09-30T18:16:02.295Z,100636.88
2023-09-30T18:18:30.133Z,100634.44
2023-09-30T18:20:58.025Z,100640.94
2023-09-30T18:23:24.629Z,100633.34
2023-09-30T18:25:51.218Z,100639.59
2023-09-30T18:28:18.069Z,100648.97
2023-09-30T18:30:46.191Z,100641.75
2023-09-30T18:33:15.675Z,100653.09
2023-09-30T18:38:12.373Z,100653.00
2023-09-30T18:40:39.195Z,100659.28
2023-09-30T18:43:06.445Z,100649.78
2023-09-30T18:45:33.192Z,100661.50
2023-09-30T18:47:59.797Z,100658.25
2023-09-30T18:50:26.396Z,100662.47
2023-09-30T18:52:54.270Z,100665.28
2023-09-30T18:55:20.934Z,100664.91
2023-09-30T18:57:47.581Z,100663.75
2023-09-30T19:00:17.443Z,100668.06
2023-09-30T19:02:44.482Z,100661.78
2023-09-30T19:05:11.067Z,100662.59
2023-09-30T19:07:40.560Z,100666.28
2023-09-30T19:10:08.804Z,100668.38
2023-09-30T19:12:35.411Z,100668.00
2023-09-30T19:15:03.136Z,100679.97
2023-09-30T19:17:29.758Z,100675.44
2023-09-30T19:19:56.298Z,100681.19
2023-09-30T19:22:22.869Z,100681.94
2023-09-30T19:24:49.742Z,100689.56
2023-09-30T19:27:16.428Z,100684.63
2023-09-30T19:29:44.125Z,100678.38
2023-09-30T19:32:10.737Z,100682.63
2023-09-30T19:34:37.258Z,100688.53
2023-09-30T19:37:03.913Z,100687.97
2023-09-30T19:39:30.770Z,100683.28
2023-09-30T19:41:57.479Z,100687.44
2023-09-30T19:44:25.371Z,100690.16
2023-09-30T19:46:52.086Z,100684.44
2023-09-30T19:49:18.878Z,100692.66
2023-09-30T19:51:45.508Z,100688.78
2023-09-30T19:54:12.566Z,100692.94
2023-09-30T19:56:39.180Z,100687.63
2023-09-30T19:59:07.088Z,100693.06
2023-09-30T20:01:33.887Z,100688.09
2023-09-30T20:04:00.774Z,100696.09
2023-09-30T20:06:27.262Z,100699.13
2023-09-30T20:08:53.849Z,100695.56
2023-09-30T20:11:25.341Z,100693.84
2023-09-30T20:13:53.227Z,100692.97
2023-09-30T20:16:21.341Z,100707.19
2023-09-30T20:18:48.315Z,100702.47
2023-09-30T20:21:15.110Z,100714.47
2023-09-30T20:23:42.177Z,100702.47
2023-09-30T20:26:09.498Z,100708.66
2023-09-30T20:31:06.172Z,100711.50
2023-09-30T20:33:33.323Z,100713.81
2023-09-30T20:35:59.888Z,100716.38
2023-09-30T20:38:26.394Z,100720.50
2023-09-30T20:40:52.925Z,100717.09
2023-09-30T20:43:19.570Z,100709.94
2023-09-30T20:45:46.159Z,100719.25
2023-09-30T20:48:12.741Z,100713.22
2023-09-30T20:50:39.330Z,100714.66
2023-09-30T20:53:06.345Z,100708.06
2023-09-30T20:55:34.205Z,100709.06
2023-09-30T20:58:00.772Z,100709.94
2023-09-30T21:00:27.696Z,100705.66
2023-09-30T21:02:54.341Z,100704.22
2023-09-30T21:05:21.190Z,100701.34
2023-09-30T21:07:47.917Z,100711.53
2023-09-30T21:10:15.118Z,100704.78
2023-09-30T21:12:41.774Z,100703.91
2023-09-30T21:15:09.118Z,100704.94
2023-09-30T21:17:36.904Z,100703.59
2023-09-30T21:20:04.604Z,100714.88
2023-09-30T21:22:32.733Z,100709.75
2023-09-30T21:24:59.411Z,100717.88
2023-09-30T21:27:26.067Z,100710.13
2023-09-30T21:29:53.100Z,100711.59
2023-09-30T21:32:19.587Z,100712.19
2023-09-30T21:34:47.405Z,100714.03
2023-09-30T21:37:14.054Z,100712.00
2023-09-30T21:39:41.157Z,100713.72
2023-09-30T21:42:07.705Z,100706.00
2023-09-30T21:44:34.526Z,100704.72
2023-09-30T21:47:02.990Z,100706.31
2023-09-30T21:49:30.482Z,100706.75
2023-09-30T21:51:57.148Z,100712.31
2023-09-30T21:54:29.024Z,100708.72
2023-09-30T21:56:55.667Z,100717.59
2023-09-30T21:59:23.244Z,100717.75
2023-09-30T22:01:49.976Z,100707.56
2023-09-30T22:04:16.722Z,100705.00
2023-09-30T22:06:44.505Z,100703.50
2023-09-30T22:09:11.148Z,100705.09
2023-09-30T22:11:41.476Z,100703.63
2023-09-30T22:14:08.335Z,100709.63
2023-09-30T22:16:35.177Z,100706.59
2023-09-30T22:19:03.360Z,100710.31
2023-09-30T22:21:30.001Z,100706.31
2023-09-30T22:23:56.710Z,100711.41
2023-09-30T22:26:23.277Z,100717.22
2023-09-30T22:28:50.007Z,100727.59
2023-09-30T22:31:16.806Z,100723.72
2023-09-30T22:33:43.520Z,100722.91
2023-09-30T22:36:10.096Z,100723.94
2023-09-30T22:38:36.773Z,100725.97
2023-09-30T22:41:03.497Z,100723.25
2023-09-30T22:43:30.452Z,100725.97
2023-09-30T22:45:56.975Z,100728.53
2023-09-30T22:48:23.588Z,100722.78
2023-09-30T22:50:50.379Z,100726.63
2023-09-30T22:53:17.293Z,100737.53
2023-09-30T22:55:43.963Z,100727.41
2023-09-30T22:58:10.615Z,100725.66
2023-09-30T23:00:37.160Z,100726.34
2023-09-30T23:03:05.052Z,100732.38
2023-09-30T23:05:31.685Z,100727.31
2023-09-30T23:07:58.330Z,100733.09
2023-09-30T23:10:25.408Z,100729.97
2023-09-30T23:12:52.140Z,100729.34
2023-09-30T23:15:20.426Z,100730.84
2023-09-30T23:17:49.315Z,100734.09
2023-09-30T23:20:18.356Z,100734.44
2023-09-30T23:22:47.140Z,100733.91
2023-09-30T23:25:14.477Z,100724.69
2023-09-30T23:27:41.034Z,100726.94
2023-09-30T23:30:08.008Z,100724.22
2023-09-30T23:32:34.766Z,100730.03
2023-09-30T23:35:01.463Z,100736.91
2023-09-30T23:37:27.975Z,100741.09
2023-09-30T23:39:54.527Z,100728.09
2023-09-30T23:42:21.134Z,100730.06
2023-09-30T23:44:47.637Z,100736.41
2023-09-30T23:47:14.271Z,100732.00
2023-09-30T23:49:40.945Z,100725.97
2023-09-30T23:52:07.521Z,100731.78
2023-09-30T23:54:34.115Z,100727.34
2023-09-30T23:57:00.682Z,100732.63
